Time;durP1;ratioP1;P1;durP2;ratioP2;P2;SDS_P1;SDS_P2;PMS_P1;PMS_P2;Temp;Humidity;BMP_temperature;BMP_pressure;BME280_temperature;BME280_humidity;BME280_pressure;Samples;Min_cycle;Max_cycle;Signal;HPM_P1;HPM_P2
2022/02/23 00:01:36;;;;;;;2.10;1.00;;;7.30;99.90;;;;;;4958237;28;20030;-69
2022/02/23 00:04:02;;;;;;;3.65;1.20;;;7.30;99.90;;;;;;4991069;28;20039;-70
2022/02/23 00:06:28;;;;;;;2.85;1.23;;;7.30;99.90;;;;;;4991450;28;20035;-67
2022/02/23 00:08:53;;;;;;;3.08;1.25;;;7.30;99.90;;;;;;4990269;28;20430;-70
2022/02/23 00:11:19;;;;;;;1.45;1.10;;;7.30;99.90;;;;;;4991405;28;20022;-67
2022/02/23 00:13:44;;;;;;;3.28;1.40;;;7.30;99.90;;;;;;4991665;28;20034;-70
2022/02/23 00:16:10;;;;;;;2.00;1.10;;;7.30;99.90;;;;;;4990542;28;20482;-67
2022/02/23 00:18:35;;;;;;;2.47;1.30;;;7.30;99.90;;;;;;4985960;28;20069;-67
2022/02/23 00:21:01;;;;;;;3.10;1.05;;;7.30;99.90;;;;;;4990409;28;20097;-67
2022/02/23 00:23:27;;;;;;;4.30;1.27;;;7.30;99.90;;;;;;4990920;28;20026;-67
2022/02/23 00:25:52;;;;;;;2.38;1.20;;;7.30;99.90;;;;;;4985839;28;20078;-67
2022/02/23 00:28:18;;;;;;;1.70;1.08;;;7.30;99.90;;;;;;4989031;28;20133;-70
2022/02/23 00:30:44;;;;;;;2.33;1.23;;;7.30;99.90;;;;;;4993016;28;20551;-70
2022/02/23 00:33:09;;;;;;;2.22;1.15;;;7.30;99.90;;;;;;4987337;28;20049;-70
2022/02/23 00:35:35;;;;;;;1.90;1.10;;;7.30;99.90;;;;;;4982468;28;20102;-70
2022/02/23 00:38:02;;;;;;;3.00;1.25;;;7.30;99.90;;;;;;4958533;28;20046;-69
2022/02/23 00:40:27;;;;;;;6.40;1.40;;;7.30;99.90;;;;;;4973211;28;20501;-70
2022/02/23 00:42:53;;;;;;;2.20;1.30;;;7.30;99.90;;;;;;4990693;28;20097;-70
2022/02/23 00:45:20;;;;;;;1.77;1.30;;;7.30;99.90;;;;;;4990119;28;20018;-68
2022/02/23 00:47:45;;;;;;;2.95;1.23;;;7.40;99.90;;;;;;4990359;28;20035;-67
2022/02/23 00:50:11;;;;;;;4.38;1.17;;;7.40;99.90;;;;;;4989640;28;20060;-67
2022/02/23 00:52:36;;;;;;;5.45;1.40;;;7.40;99.90;;;;;;4990367;28;20379;-70
2022/02/23 00:55:02;;;;;;;2.60;1.25;;;7.50;99.90;;;;;;4990969;28;20039;-70
2022/02/23 00:57:28;;;;;;;1.63;1.45;;;7.50;99.90;;;;;;4990251;28;20030;-70
2022/02/23 00:59:54;;;;;;;3.67;1.20;;;7.50;99.90;;;;;;4998852;28;20022;-67
2022/02/23 01:02:20;;;;;;;8.05;1.75;;;7.50;99.90;;;;;;4990350;28;20023;-70
2022/02/23 01:04:45;;;;;;;2.05;1.40;;;7.60;99.90;;;;;;4990312;28;20058;-67
2022/02/23 01:07:12;;;;;;;3.75;1.00;;;7.60;99.90;;;;;;4991164;28;20054;-67
2022/02/23 01:09:38;;;;;;;2.65;0.70;;;7.50;99.90;;;;;;4994412;28;20406;-70
2022/02/23 01:12:04;;;;;;;2.25;0.80;;;7.20;99.90;;;;;;4993462;28;20035;-71
2022/02/23 01:14:30;;;;;;;1.63;0.90;;;6.90;99.90;;;;;;4994416;28;20376;-69
2022/02/23 01:16:55;;;;;;;0.95;0.82;;;6.60;99.90;;;;;;4993564;28;20021;-69
2022/02/23 01:19:21;;;;;;;2.45;0.68;;;6.40;99.90;;;;;;4994105;28;20382;-69
2022/02/23 01:21:47;;;;;;;2.42;0.77;;;6.20;99.90;;;;;;5002796;28;20097;-69
2022/02/23 01:24:13;;;;;;;4.53;0.85;;;6.20;99.90;;;;;;5013897;28;20436;-69
2022/02/23 01:26:39;;;;;;;0.73;0.60;;;6.10;99.90;;;;;;4987833;28;20034;-69
2022/02/23 01:29:05;;;;;;;2.00;0.75;;;6.10;99.90;;;;;;4988627;28;20109;-69
2022/02/23 01:31:31;;;;;;;7.43;0.90;;;6.00;99.90;;;;;;4992661;28;20113;-69
2022/02/23 01:33:56;;;;;;;2.13;0.85;;;6.00;99.90;;;;;;4993829;28;20033;-69
2022/02/23 01:36:22;;;;;;;3.30;0.70;;;5.90;99.90;;;;;;4993709;28;20702;-69
2022/02/23 01:38:47;;;;;;;3.92;0.77;;;6.00;99.90;;;;;;4993901;28;20023;-69
2022/02/23 01:41:17;;;;;;;2.90;0.85;;;6.00;99.90;;;;;;4993985;28;20093;-69
2022/02/23 01:43:44;;;;;;;1.40;0.60;;;6.00;99.90;;;;;;4994439;28;20050;-69
2022/02/23 01:46:09;;;;;;;3.05;0.73;;;6.00;99.90;;;;;;4992754;28;20026;-69
2022/02/23 01:48:35;;;;;;;1.92;0.80;;;6.00;99.90;;;;;;4992817;28;20479;-69
2022/02/23 01:51:01;;;;;;;1.58;0.63;;;6.00;99.90;;;;;;4994084;28;20027;-69
2022/02/23 01:53:26;;;;;;;1.42;0.90;;;6.00;99.90;;;;;;4976687;28;20034;-69
2022/02/23 01:55:52;;;;;;;2.92;0.70;;;6.00;99.90;;;;;;4993662;28;20454;-69
2022/02/23 01:58:17;;;;;;;5.13;0.80;;;6.00;99.90;;;;;;4993385;28;20031;-69
2022/02/23 02:00:43;;;;;;;2.90;0.90;;;6.00;99.90;;;;;;4993114;28;20080;-69
2022/02/23 02:03:09;;;;;;;3.08;0.60;;;6.00;99.90;;;;;;4998509;28;20026;-69
2022/02/23 02:05:34;;;;;;;3.60;0.60;;;6.00;99.90;;;;;;4993879;28;20030;-69
2022/02/23 02:08:00;;;;;;;5.35;0.93;;;6.00;99.90;;;;;;4992903;28;20030;-69
2022/02/23 02:10:26;;;;;;;1.55;0.82;;;6.00;99.90;;;;;;5004969;28;20041;-69
2022/02/23 02:12:51;;;;;;;2.65;0.77;;;6.00;99.90;;;;;;4993502;28;20035;-69
2022/02/23 02:15:17;;;;;;;3.38;0.93;;;6.00;99.90;;;;;;4991931;28;20037;-69
2022/02/23 02:17:42;;;;;;;3.33;0.80;;;6.10;99.90;;;;;;4980730;28;20038;-69
2022/02/23 02:20:10;;;;;;;2.15;0.80;;;6.00;99.90;;;;;;4990900;28;20371;-69
2022/02/23 02:22:35;;;;;;;2.58;0.63;;;6.00;99.90;;;;;;5001463;28;20018;-69
2022/02/23 02:25:01;;;;;;;1.48;0.65;;;6.00;99.90;;;;;;4993129;28;20106;-70
2022/02/23 02:27:27;;;;;;;1.13;0.68;;;6.00;99.90;;;;;;4992623;28;20022;-69
2022/02/23 02:29:53;;;;;;;3.33;0.80;;;6.00;99.90;;;;;;4999471;28;20479;-69
2022/02/23 02:32:19;;;;;;;3.38;0.80;;;6.10;99.90;;;;;;5001949;28;20027;-69
2022/02/23 02:34:46;;;;;;;2.72;0.75;;;6.10;99.90;;;;;;4993066;28;20088;-69
2022/02/23 02:37:13;;;;;;;4.65;0.93;;;6.10;99.90;;;;;;4992475;28;20105;-69
2022/02/23 02:39:38;;;;;;;7.30;1.13;;;6.10;99.90;;;;;;4993004;28;20034;-69
2022/02/23 02:42:04;;;;;;;3.63;0.90;;;6.10;99.90;;;;;;4982369;28;20037;-69
2022/02/23 02:44:31;;;;;;;2.28;1.02;;;6.10;99.90;;;;;;4985751;28;20029;-69
2022/02/23 02:46:56;;;;;;;3.15;0.80;;;6.10;99.90;;;;;;4991059;28;20034;-69
2022/02/23 02:49:22;;;;;;;8.27;0.90;;;6.10;99.90;;;;;;4976101;28;20098;-69
2022/02/23 02:51:48;;;;;;;5.55;0.80;;;6.10;99.90;;;;;;4992682;28;20062;-69
2022/02/23 02:54:14;;;;;;;2.15;0.60;;;6.10;99.90;;;;;;4992310;28;20026;-69
2022/02/23 02:56:40;;;;;;;4.63;1.00;;;6.10;99.90;;;;;;4990641;28;20037;-69
2022/02/23 02:59:07;;;;;;;4.80;0.98;;;6.10;99.90;;;;;;4983422;28;20245;-69
2022/02/23 03:01:33;;;;;;;0.90;0.70;;;6.00;99.90;;;;;;4999726;28;20033;-69
2022/02/23 03:03:59;;;;;;;5.70;1.35;;;6.00;99.90;;;;;;4997182;28;20026;-69
2022/02/23 03:06:25;;;;;;;4.75;1.08;;;6.00;99.90;;;;;;4992381;28;20057;-69
2022/02/23 03:08:52;;;;;;;2.88;1.10;;;6.00;99.90;;;;;;4992230;28;20038;-69
2022/02/23 03:11:19;;;;;;;7.85;1.00;;;6.00;99.90;;;;;;4991806;28;20041;-69
2022/02/23 03:13:45;;;;;;;4.30;0.95;;;6.00;99.90;;;;;;4992661;28;20030;-69
2022/02/23 03:16:12;;;;;;;3.33;0.95;;;5.90;99.90;;;;;;4992686;28;20038;-69
2022/02/23 03:18:38;;;;;;;5.47;1.23;;;6.00;99.90;;;;;;4991628;28;20549;-69
2022/02/23 03:21:05;;;;;;;5.40;0.98;;;6.00;99.90;;;;;;5000203;28;20026;-69
2022/02/23 03:23:31;;;;;;;4.75;1.10;;;5.90;99.90;;;;;;5006991;28;20053;-69
2022/02/23 03:25:57;;;;;;;3.17;0.80;;;5.90;99.90;;;;;;4976690;28;20034;-70
2022/02/23 03:28:23;;;;;;;4.68;0.90;;;5.90;99.90;;;;;;4992116;28;20568;-69
2022/02/23 03:30:49;;;;;;;4.40;1.35;;;5.90;99.90;;;;;;4992042;28;20093;-69
2022/02/23 03:33:15;;;;;;;5.50;0.88;;;5.90;99.90;;;;;;4990628;28;20030;-69
2022/02/23 03:35:43;;;;;;;3.97;0.80;;;5.90;99.90;;;;;;4991515;28;20060;-69
2022/02/23 03:38:10;;;;;;;4.15;1.00;;;5.90;99.90;;;;;;4990813;28;20050;-69
2022/02/23 03:40:36;;;;;;;5.88;1.20;;;5.90;99.90;;;;;;4974773;28;20093;-69
2022/02/23 03:43:03;;;;;;;5.13;0.93;;;5.90;99.90;;;;;;4991949;28;20085;-69
2022/02/23 03:45:29;;;;;;;4.22;0.90;;;5.90;99.90;;;;;;4991644;28;20163;-69
2022/02/23 03:47:55;;;;;;;5.43;1.17;;;5.90;99.90;;;;;;4991156;28;20026;-69
2022/02/23 03:50:21;;;;;;;7.55;1.05;;;6.00;99.90;;;;;;4991756;28;20034;-69
2022/02/23 03:52:46;;;;;;;6.72;1.40;;;6.00;99.90;;;;;;4990058;28;20052;-69
2022/02/23 03:55:13;;;;;;;5.15;1.10;;;6.00;99.90;;;;;;4990809;28;20542;-69
2022/02/23 03:57:39;;;;;;;4.70;1.10;;;6.00;99.90;;;;;;4991478;28;20018;-70
2022/02/23 04:00:07;;;;;;;5.20;1.50;;;6.00;99.90;;;;;;4991273;28;20053;-69
2022/02/23 04:02:33;;;;;;;3.28;0.82;;;6.00;99.90;;;;;;4990986;28;20045;-69
2022/02/23 04:04:59;;;;;;;4.20;1.13;;;5.90;99.90;;;;;;4991473;28;20105;-69
2022/02/23 04:07:25;;;;;;;4.93;1.20;;;5.90;99.90;;;;;;4990598;28;20550;-69
2022/02/23 04:09:50;;;;;;;3.70;1.08;;;5.90;99.90;;;;;;4991153;28;20030;-69
2022/02/23 04:12:16;;;;;;;6.47;1.25;;;5.80;99.90;;;;;;4991230;28;20018;-69
2022/02/23 04:14:43;;;;;;;4.07;1.20;;;5.80;99.90;;;;;;4991186;28;20072;-69
2022/02/23 04:17:08;;;;;;;6.10;1.13;;;5.80;99.90;;;;;;5006512;28;20029;-69
2022/02/23 04:19:34;;;;;;;6.90;1.30;;;5.70;99.90;;;;;;4986104;28;20023;-69
2022/02/23 04:22:00;;;;;;;4.35;1.10;;;5.70;99.90;;;;;;4974518;28;20022;-69
2022/02/23 04:24:25;;;;;;;6.22;1.35;;;5.70;99.90;;;;;;4990876;28;20041;-69
2022/02/23 04:26:51;;;;;;;7.75;1.02;;;5.70;99.90;;;;;;4987569;28;20026;-69
2022/02/23 04:29:17;;;;;;;1.90;1.30;;;5.60;99.90;;;;;;4989525;28;20113;-69
2022/02/23 04:31:43;;;;;;;4.57;1.17;;;5.50;99.90;;;;;;4990227;28;20080;-69
2022/02/23 04:34:10;;;;;;;6.70;1.45;;;5.50;99.90;;;;;;4981569;28;20050;-69
2022/02/23 04:36:36;;;;;;;8.10;1.45;;;5.40;99.90;;;;;;4990284;28;20040;-69
2022/02/23 04:39:03;;;;;;;4.78;1.33;;;5.40;99.90;;;;;;4992040;28;20049;-69
2022/02/23 04:41:29;;;;;;;6.90;1.40;;;5.40;99.90;;;;;;4992427;28;20026;-69
2022/02/23 04:43:54;;;;;;;4.38;1.10;;;5.30;99.90;;;;;;4995478;28;20022;-69
2022/02/23 04:46:20;;;;;;;7.60;1.50;;;5.30;99.90;;;;;;4994212;28;20506;-69
2022/02/23 04:48:46;;;;;;;7.90;1.20;;;5.30;99.90;;;;;;4985796;28;20085;-69
2022/02/23 04:51:12;;;;;;;9.38;1.70;;;5.30;99.90;;;;;;4994675;28;20022;-69
2022/02/23 04:53:38;;;;;;;9.48;1.35;;;5.30;99.90;;;;;;4995186;28;20727;-69
2022/02/23 04:56:05;;;;;;;6.20;1.35;;;5.30;99.90;;;;;;4995067;28;20041;-69
2022/02/23 04:58:31;;;;;;;4.95;1.33;;;5.30;99.90;;;;;;4994447;28;20084;-69
2022/02/23 05:00:57;;;;;;;7.25;1.80;;;5.30;99.90;;;;;;4987755;28;20530;-69
2022/02/23 05:03:23;;;;;;;7.95;1.77;;;5.30;99.90;;;;;;4975460;28;20031;-69
2022/02/23 05:05:49;;;;;;;8.98;2.00;;;5.30;99.90;;;;;;4993916;28;20027;-69
2022/02/23 05:08:17;;;;;;;6.07;1.42;;;5.30;99.90;;;;;;4976512;28;20072;-69
2022/02/23 05:10:44;;;;;;;6.78;2.00;;;5.30;99.90;;;;;;5002538;28;20027;-69
2022/02/23 05:13:10;;;;;;;11.13;2.00;;;5.30;99.90;;;;;;4997872;28;20430;-69
2022/02/23 05:15:36;;;;;;;8.43;1.70;;;5.30;99.90;;;;;;4988861;28;20035;-70
2022/02/23 05:18:04;;;;;;;4.50;1.63;;;5.20;99.90;;;;;;4990344;28;20081;-69
2022/02/23 05:20:30;;;;;;;4.68;1.63;;;5.20;99.90;;;;;;4994057;28;20455;-68
2022/02/23 05:22:55;;;;;;;9.35;1.80;;;5.20;99.90;;;;;;4992822;28;20101;-69
2022/02/23 05:25:21;;;;;;;7.55;1.52;;;5.20;99.90;;;;;;4993588;28;20120;-68
2022/02/23 05:27:47;;;;;;;6.72;1.55;;;5.10;99.90;;;;;;4990989;28;20378;-69
2022/02/23 05:30:12;;;;;;;5.65;1.50;;;5.10;99.90;;;;;;5080995;23;20169;-73
2022/02/23 05:32:38;;;;;;;7.50;1.58;;;5.00;99.90;;;;;;4974967;28;20501;-73
2022/02/23 05:35:06;;;;;;;9.40;1.90;;;5.00;99.90;;;;;;4992605;28;20486;-72
2022/02/23 05:37:32;;;;;;;7.93;1.60;;;4.90;99.90;;;;;;4991793;28;20022;-72
2022/02/23 05:39:58;;;;;;;7.93;1.75;;;4.90;99.90;;;;;;4990283;28;20028;-72
2022/02/23 05:42:23;;;;;;;5.57;1.60;;;4.80;99.90;;;;;;4986246;28;20038;-72
2022/02/23 05:44:49;;;;;;;6.32;1.90;;;4.80;99.90;;;;;;4992942;28;20026;-69
2022/02/23 05:47:15;;;;;;;8.70;1.60;;;4.80;99.90;;;;;;4991428;28;20033;-73
2022/02/23 05:49:41;;;;;;;6.13;1.98;;;4.70;99.90;;;;;;4996783;28;20543;-72
2022/02/23 05:52:06;;;;;;;6.93;1.83;;;4.70;99.90;;;;;;4979951;28;20044;-73
2022/02/23 05:54:32;;;;;;;9.05;1.90;;;4.60;99.90;;;;;;4993522;28;20058;-73
2022/02/23 05:56:59;;;;;;;7.75;1.90;;;4.60;99.90;;;;;;4992428;28;20034;-68
2022/02/23 05:59:27;;;;;;;8.68;1.98;;;4.60;99.90;;;;;;4995758;28;20100;-73
2022/02/23 06:01:53;;;;;;;10.90;2.10;;;4.60;99.90;;;;;;4996615;28;20048;-71
2022/02/23 06:04:19;;;;;;;8.07;1.90;;;4.60;99.90;;;;;;4992103;28;20066;-72
2022/02/23 06:06:44;;;;;;;12.77;2.15;;;4.60;99.90;;;;;;4992558;28;20030;-72
2022/02/23 06:09:10;;;;;;;6.35;2.20;;;4.60;99.90;;;;;;4991517;28;20375;-72
2022/02/23 06:11:36;;;;;;;4.50;2.30;;;4.60;99.90;;;;;;4978257;28;20077;-71
2022/02/23 06:14:03;;;;;;;6.72;2.22;;;4.60;99.90;;;;;;4975376;28;20462;-72
2022/02/23 06:16:29;;;;;;;7.30;2.58;;;4.60;99.90;;;;;;4975665;28;20053;-74
2022/02/23 06:18:55;;;;;;;10.25;2.55;;;4.60;99.90;;;;;;4986418;28;20029;-73
2022/02/23 06:21:21;;;;;;;12.25;2.38;;;4.60;99.90;;;;;;4987331;28;20026;-72
2022/02/23 06:23:47;;;;;;;10.00;3.00;;;4.60;99.90;;;;;;4987901;28;20018;-73
2022/02/23 06:26:13;;;;;;;10.15;3.00;;;4.60;99.90;;;;;;4968172;28;20411;-73
2022/02/23 06:28:40;;;;;;;20.02;7.38;;;4.60;99.90;;;;;;4986171;28;20418;-73
2022/02/23 06:31:06;;;;;;;12.48;3.08;;;4.60;99.90;;;;;;4993396;28;20026;-74
2022/02/23 06:33:32;;;;;;;8.10;2.40;;;4.50;99.90;;;;;;4991976;28;20506;-73
2022/02/23 06:35:58;;;;;;;7.32;1.75;;;4.60;99.90;;;;;;4996661;28;20041;-74
2022/02/23 06:38:23;;;;;;;9.48;2.50;;;4.60;99.90;;;;;;4991271;28;20026;-74
2022/02/23 06:40:49;;;;;;;6.07;2.10;;;4.60;99.90;;;;;;4984649;28;20080;-73
2022/02/23 06:43:18;;;;;;;8.60;1.98;;;4.70;99.90;;;;;;4993691;28;20540;-73
2022/02/23 06:45:46;;;;;;;10.35;4.85;;;4.80;99.90;;;;;;5000778;28;20109;-72
2022/02/23 06:48:11;;;;;;;14.55;4.22;;;4.90;99.90;;;;;;4993778;28;20025;-74
2022/02/23 06:50:39;;;;;;;6.05;1.85;;;5.00;99.90;;;;;;4994082;28;20046;-71
2022/02/23 06:53:05;;;;;;;5.35;1.80;;;5.20;99.90;;;;;;4975088;28;20034;-72
2022/02/23 06:55:31;;;;;;;6.65;2.00;;;5.40;99.90;;;;;;4976548;28;20498;-71
2022/02/23 06:57:56;;;;;;;6.30;1.85;;;5.50;99.90;;;;;;4991422;28;20105;-72
2022/02/23 07:00:22;;;;;;;6.20;1.77;;;5.70;99.90;;;;;;4992061;28;20023;-72
2022/02/23 07:02:49;;;;;;;5.90;1.85;;;6.00;99.90;;;;;;4974101;28;20066;-72
2022/02/23 07:05:15;;;;;;;3.53;1.92;;;6.30;99.90;;;;;;4989015;28;20030;-73
2022/02/23 07:07:41;;;;;;;11.02;2.10;;;6.50;99.90;;;;;;4989370;28;20038;-71
2022/02/23 07:10:24;;;;;;;21.50;8.68;;;6.50;99.90;;;;;;4991907;28;20037;-72
2022/02/23 07:12:51;;;;;;;8.88;1.83;;;6.60;99.90;;;;;;4992256;28;20022;-72
2022/02/23 07:15:18;;;;;;;9.57;2.10;;;6.80;99.90;;;;;;4974119;28;20061;-72
2022/02/23 07:17:44;;;;;;;4.97;1.88;;;7.20;99.90;;;;;;4964695;28;20031;-72
2022/02/23 07:20:10;;;;;;;9.20;2.22;;;7.50;99.90;;;;;;4983874;28;20061;-72
2022/02/23 07:22:36;;;;;;;6.40;2.17;;;7.80;99.90;;;;;;4989203;28;20069;-71
2022/02/23 07:25:03;;;;;;;6.80;1.70;;;7.80;99.90;;;;;;5011878;28;20054;-71
2022/02/23 07:27:29;;;;;;;8.30;1.73;;;7.80;99.90;;;;;;4992590;28;20052;-72
2022/02/23 07:29:54;;;;;;;9.90;1.98;;;8.20;99.90;;;;;;4973844;28;20034;-72
2022/02/23 07:32:22;;;;;;;6.90;2.40;;;8.60;99.90;;;;;;4991256;28;20038;-71
2022/02/23 07:34:50;;;;;;;8.88;2.28;;;8.90;99.90;;;;;;4991782;28;20090;-72
2022/02/23 07:37:16;;;;;;;8.63;1.92;;;9.20;99.90;;;;;;4987971;28;20029;-72
2022/02/23 07:39:42;;;;;;;9.05;1.80;;;9.60;99.90;;;;;;4973675;28;20031;-72
2022/02/23 07:42:08;;;;;;;10.27;1.85;;;9.70;99.90;;;;;;4954549;28;20070;-72
2022/02/23 07:44:34;;;;;;;6.93;1.75;;;9.90;99.90;;;;;;4954820;28;20030;-72
2022/02/23 07:46:59;;;;;;;7.60;2.00;;;10.10;99.90;;;;;;4981698;28;20033;-72
2022/02/23 07:49:26;;;;;;;8.13;2.28;;;10.30;99.90;;;;;;4991280;28;20038;-72
2022/02/23 07:51:51;;;;;;;7.15;2.15;;;10.50;99.90;;;;;;4972495;28;20032;-72
2022/02/23 07:54:17;;;;;;;7.88;2.17;;;10.70;99.90;;;;;;4991247;28;20030;-72
2022/02/23 07:56:43;;;;;;;7.43;2.50;;;10.70;99.90;;;;;;4991093;28;20538;-71
2022/02/23 07:59:09;;;;;;;6.60;2.08;;;10.60;99.90;;;;;;4989792;28;20023;-72
2022/02/23 08:01:41;;;;;;;7.50;2.15;;;10.60;99.90;;;;;;4989361;28;20053;-72
2022/02/23 08:04:07;;;;;;;5.57;2.25;;;10.80;99.90;;;;;;4991298;28;20585;-72
2022/02/23 08:06:34;;;;;;;5.18;1.92;;;11.10;99.90;;;;;;4990876;28;20089;-72
2022/02/23 08:09:02;;;;;;;6.35;2.17;;;11.20;99.90;;;;;;4990338;28;20050;-72
2022/02/23 08:11:29;;;;;;;8.00;2.28;;;11.30;99.90;;;;;;4973665;28;20484;-72
2022/02/23 08:14:02;;;;;;;5.85;2.30;;;11.30;99.90;;;;;;4991174;28;20375;-73
2022/02/23 08:19:31;;;;;;;10.15;2.33;;;11.10;99.90;;;;;;4981863;28;20101;-71
2022/02/23 08:22:06;;;;;;;6.30;2.00;;;11.10;99.90;;;;;;4988343;28;20033;-72
2022/02/23 08:24:34;;;;;;;10.95;2.40;;;11.20;99.90;;;;;;4989079;28;20057;-72
2022/02/23 08:27:01;;;;;;;9.73;2.50;;;11.30;99.90;;;;;;4987217;28;20041;-71
2022/02/23 08:29:27;;;;;;;11.00;2.08;;;11.30;99.90;;;;;;4983345;28;20030;-72
2022/02/23 08:31:53;;;;;;;9.00;2.50;;;11.30;99.90;;;;;;4989042;28;20062;-72
2022/02/23 08:34:20;;;;;;;10.82;2.13;;;11.30;99.90;;;;;;4970888;28;20035;-72
2022/02/23 08:36:46;;;;;;;9.18;2.20;;;11.20;99.90;;;;;;4981555;28;20081;-73
2022/02/23 08:39:12;;;;;;;5.70;1.88;;;11.20;99.90;;;;;;4989468;28;20019;-71
2022/02/23 08:41:38;;;;;;;9.43;2.38;;;11.00;99.90;;;;;;4973407;28;20026;-72
2022/02/23 08:44:07;;;;;;;9.05;2.22;;;10.80;99.90;;;;;;4983463;28;20093;-72
2022/02/23 08:46:34;;;;;;;4.90;1.67;;;10.60;99.90;;;;;;4968384;28;20117;-72
2022/02/23 08:49:00;;;;;;;8.15;1.98;;;10.50;99.90;;;;;;4972512;28;20054;-72
2022/02/23 08:51:26;;;;;;;8.60;3.00;;;10.30;99.90;;;;;;4989969;28;20026;-72
2022/02/23 08:53:51;;;;;;;10.02;2.78;;;10.10;99.90;;;;;;4989626;28;20537;-72
2022/02/23 08:56:17;;;;;;;9.27;2.38;;;10.00;99.90;;;;;;4989069;28;20050;-71
2022/02/23 08:58:43;;;;;;;6.45;1.83;;;9.90;99.90;;;;;;4988860;28;20153;-72
2022/02/23 09:01:08;;;;;;;7.65;2.65;;;9.90;99.90;;;;;;4983741;28;20455;-72
2022/02/23 09:03:34;;;;;;;10.45;2.28;;;9.80;99.90;;;;;;4974180;28;20026;-73
2022/02/23 09:05:59;;;;;;;5.75;1.92;;;9.70;99.90;;;;;;4988604;28;20517;-73
2022/02/23 09:08:25;;;;;;;4.70;1.88;;;9.60;99.90;;;;;;4988161;28;20030;-72
2022/02/23 09:10:50;;;;;;;9.07;2.25;;;9.60;99.90;;;;;;4972487;28;20023;-73
2022/02/23 09:13:16;;;;;;;6.65;1.92;;;9.70;99.90;;;;;;4989411;28;20030;-73
2022/02/23 09:15:42;;;;;;;5.72;1.67;;;9.80;99.90;;;;;;4993381;28;20104;-72
2022/02/23 09:18:07;;;;;;;7.88;2.22;;;9.90;99.90;;;;;;4991260;28;20480;-72
2022/02/23 09:20:33;;;;;;;9.55;2.47;;;10.00;99.90;;;;;;4982838;28;20463;-71
2022/02/23 09:22:59;;;;;;;9.65;2.05;;;10.10;99.90;;;;;;4985210;28;20022;-70
2022/02/23 09:25:24;;;;;;;7.43;2.00;;;10.10;99.90;;;;;;4984785;28;20446;-71
2022/02/23 09:27:51;;;;;;;5.20;1.52;;;10.10;99.90;;;;;;4976640;28;20027;-72
2022/02/23 09:30:17;;;;;;;8.18;1.52;;;10.10;99.90;;;;;;4983315;28;20030;-72
2022/02/23 09:32:43;;;;;;;5.50;1.60;;;9.90;99.90;;;;;;4986914;28;20049;-72
2022/02/23 09:35:09;;;;;;;8.45;1.95;;;9.80;99.90;;;;;;4972599;28;20033;-72
2022/02/23 09:37:35;;;;;;;7.22;1.75;;;9.70;99.90;;;;;;4969050;28;20030;-69
2022/02/23 09:40:01;;;;;;;7.63;1.50;;;9.60;99.90;;;;;;4979875;28;20398;-75
2022/02/23 09:42:28;;;;;;;7.72;1.77;;;9.60;99.90;;;;;;4991844;28;20022;-74
2022/02/23 09:44:59;;;;;;;9.63;1.70;;;9.50;99.90;;;;;;4988131;28;20027;-72
2022/02/23 09:47:25;;;;;;;5.45;1.50;;;9.60;99.90;;;;;;4995012;28;20038;-74
2022/02/23 09:49:52;;;;;;;6.10;1.33;;;9.70;99.90;;;;;;4993416;28;20030;-73
2022/02/23 09:52:23;;;;;;;5.55;1.27;;;9.90;99.90;;;;;;4983920;28;20062;-73
2022/02/23 09:54:49;;;;;;;8.20;1.75;;;10.00;99.90;;;;;;4974212;28;20044;-72
2022/02/23 09:57:15;;;;;;;6.45;1.52;;;10.10;99.90;;;;;;4993116;28;20101;-74
2022/02/23 09:59:41;;;;;;;11.75;1.70;;;10.20;99.90;;;;;;4995328;28;20135;-73
2022/02/23 10:02:10;;;;;;;5.55;1.17;;;10.10;99.90;;;;;;4999766;28;20018;-73
2022/02/23 10:04:36;;;;;;;10.23;1.65;;;10.00;99.90;;;;;;4989130;28;20022;-73
2022/02/23 10:07:05;;;;;;;9.32;1.70;;;10.00;99.90;;;;;;4990565;28;20108;-74
2022/02/23 10:09:43;;;;;;;7.93;1.63;;;10.10;99.90;;;;;;4991507;28;20035;-74
2022/02/23 10:12:16;;;;;;;7.43;1.90;;;10.20;99.90;;;;;;4990990;28;20034;-74
2022/02/23 10:14:42;;;;;;;6.40;1.45;;;10.10;99.90;;;;;;4989779;28;20160;-73
2022/02/23 10:17:07;;;;;;;4.35;1.25;;;10.10;99.90;;;;;;4988925;28;20143;-76
2022/02/23 10:19:34;;;;;;;7.47;1.25;;;10.00;99.90;;;;;;4992360;28;20031;-73
2022/02/23 10:22:02;;;;;;;4.28;1.00;;;9.90;99.90;;;;;;4991420;28;20360;-75
2022/02/23 10:24:31;;;;;;;7.90;1.67;;;9.90;99.90;;;;;;4999886;28;20029;-75
2022/02/23 10:27:03;;;;;;;5.03;1.23;;;9.90;99.90;;;;;;4987735;28;20591;-74
2022/02/23 10:29:35;;;;;;;6.22;1.65;;;9.90;99.90;;;;;;4992610;28;20038;-74
2022/02/23 10:32:06;;;;;;;9.45;1.65;;;9.80;99.90;;;;;;4992010;28;20126;-75
2022/02/23 10:34:46;;;;;;;6.07;1.60;;;9.80;99.90;;;;;;4975061;28;20030;-75
2022/02/23 10:37:17;;;;;;;4.53;1.23;;;9.70;99.90;;;;;;4990643;28;20109;-75
2022/02/23 10:39:48;;;;;;;8.80;2.10;;;9.60;99.90;;;;;;4992190;28;20101;-75
2022/02/23 10:42:21;;;;;;;19.13;2.33;;;9.60;99.90;;;;;;4992183;28;20482;-74
2022/02/23 10:44:50;;;;;;;5.78;1.40;;;9.50;99.90;;;;;;4992744;28;20041;-75
2022/02/23 10:47:23;;;;;;;4.07;1.30;;;9.40;99.90;;;;;;4989514;28;20090;-74
2022/02/23 10:50:08;;;;;;;5.20;2.38;;;9.50;99.90;;;;;;4992740;28;20026;-75
2022/02/23 10:52:52;;;;;;;9.20;2.03;;;9.50;99.90;;;;;;4990152;28;20076;-74
2022/02/23 10:55:24;;;;;;;7.93;1.65;;;9.50;99.90;;;;;;4992333;28;20474;-75
2022/02/23 10:57:52;;;;;;;;;;;9.60;99.90;;;;;;4991954;28;20029;-74
2022/02/23 11:00:20;;;;;;;8.57;1.65;;;9.60;99.90;;;;;;4992115;28;19906;-75
2022/02/23 11:02:47;;;;;;;4.82;1.20;;;9.70;99.90;;;;;;4970752;28;20102;-72
2022/02/23 11:05:14;;;;;;;4.13;1.33;;;9.80;99.90;;;;;;4991523;28;20029;-74
2022/02/23 11:07:43;;;;;;;5.47;1.38;;;9.80;99.90;;;;;;4991379;28;20088;-74
2022/02/23 11:10:13;;;;;;;6.78;1.50;;;9.80;99.90;;;;;;4992517;28;20034;-73
2022/02/23 11:12:42;;;;;;;4.13;1.50;;;9.80;99.90;;;;;;4992390;28;20094;-75
2022/02/23 11:15:09;;;;;;;6.70;1.30;;;9.70;99.90;;;;;;4993583;28;20026;-74
2022/02/23 11:17:37;;;;;;;5.18;1.40;;;9.80;99.90;;;;;;4991038;28;20031;-73
2022/02/23 11:20:04;;;;;;;5.97;1.40;;;9.90;99.90;;;;;;4992543;28;20097;-74
2022/02/23 11:22:31;;;;;;;5.25;1.55;;;9.90;99.90;;;;;;4992051;28;20030;-73
2022/02/23 11:24:57;;;;;;;7.35;1.52;;;10.10;99.90;;;;;;4958003;28;20376;-73
2022/02/23 11:27:26;;;;;;;4.90;1.00;;;10.10;99.90;;;;;;4989872;28;20745;-74
2022/02/23 11:30:04;;;;;;;4.60;1.40;;;10.20;99.90;;;;;;4999299;23;20050;-66
2022/02/23 11:32:41;;;;;;;3.55;1.17;;;10.20;99.90;;;;;;4989175;28;20027;-66
2022/02/23 11:35:08;;;;;;;5.32;1.20;;;10.20;99.90;;;;;;4991167;28;20098;-67
2022/02/23 11:37:34;;;;;;;4.95;1.10;;;10.30;99.90;;;;;;4990796;28;20133;-67
2022/02/23 11:40:01;;;;;;;6.65;1.55;;;10.50;99.90;;;;;;4990895;28;20428;-67
2022/02/23 11:42:26;;;;;;;7.10;1.25;;;10.60;99.90;;;;;;4991557;28;20089;-65
2022/02/23 11:45:05;;;;;;;7.07;1.40;;;10.70;99.90;;;;;;4973779;28;20026;-68
2022/02/23 11:47:31;;;;;;;2.78;1.17;;;10.70;99.90;;;;;;4990080;28;20390;-68
2022/02/23 11:50:03;;;;;;;4.47;0.85;;;10.80;99.90;;;;;;4988369;28;20030;-68
2022/02/23 11:52:30;;;;;;;3.88;1.10;;;11.00;99.90;;;;;;4990819;28;20033;-68
2022/02/23 11:54:57;;;;;;;2.95;1.17;;;11.10;99.90;;;;;;4982592;28;20054;-69
2022/02/23 11:57:52;;;;;;;6.43;1.70;;;11.30;99.90;;;;;;4988179;28;20417;-69
2022/02/23 12:00:29;;;;;;;4.95;1.60;;;11.50;99.90;;;;;;4987802;28;20494;-69
2022/02/23 12:03:01;;;;;;;5.80;1.05;;;11.80;99.90;;;;;;4987817;28;20137;-70
2022/02/23 12:05:40;;;;;;;4.55;1.13;;;12.10;99.90;;;;;;4985288;28;20166;-70
2022/02/23 12:08:27;;;;;;;3.42;1.20;;;12.30;99.40;;;;;;4990002;28;20035;-69
2022/02/23 12:10:52;;;;;;;4.82;1.33;;;12.40;99.20;;;;;;4988942;28;20030;-69
2022/02/23 12:13:35;;;;;;;5.10;1.50;;;12.60;98.90;;;;;;4987514;28;20475;-69
2022/02/23 12:16:35;;;;;;;4.07;0.82;;;12.70;98.10;;;;;;4990388;28;20181;-70
2022/02/23 12:19:04;;;;;;;7.10;1.33;;;13.00;97.60;;;;;;4989305;28;20395;-69
2022/02/23 12:21:40;;;;;;;6.07;1.35;;;13.10;97.50;;;;;;4990379;28;20030;-70
2022/02/23 12:24:07;;;;;;;4.07;1.05;;;13.20;96.90;;;;;;4985610;28;20097;-69
2022/02/23 12:26:36;;;;;;;4.28;1.27;;;13.30;97.00;;;;;;4989898;28;20096;-70
2022/02/23 12:29:04;;;;;;;4.68;1.27;;;13.30;96.40;;;;;;4988864;28;20079;-70
2022/02/23 12:31:32;;;;;;;5.43;1.10;;;13.40;96.40;;;;;;4990714;28;20459;-69
2022/02/23 12:34:19;;;;;;;2.92;0.70;;;13.50;95.80;;;;;;4990137;28;20034;-69
2022/02/23 12:36:51;;;;;;;2.38;0.82;;;13.50;95.00;;;;;;4988629;28;20487;-69
2022/02/23 12:39:25;;;;;;;3.50;1.17;;;13.50;95.20;;;;;;4987436;28;20117;-69
2022/02/23 12:41:56;;;;;;;3.53;0.80;;;13.60;94.80;;;;;;4987302;28;20095;-69
2022/02/23 12:44:24;;;;;;;4.22;1.25;;;13.50;94.40;;;;;;4990665;28;20034;-67
2022/02/23 12:46:55;;;;;;;5.00;1.10;;;13.60;94.50;;;;;;4990314;28;20030;-67
2022/02/23 12:49:22;;;;;;;4.00;1.00;;;13.70;95.00;;;;;;4989957;28;20022;-69
2022/02/23 12:51:49;;;;;;;5.50;1.10;;;14.00;94.70;;;;;;4989057;28;20057;-69
2022/02/23 12:54:21;;;;;;;1.90;0.70;;;14.20;94.30;;;;;;4988674;28;20045;-69
2022/02/23 12:56:50;;;;;;;4.13;1.00;;;14.30;93.20;;;;;;4984618;28;20113;-69